Time,TemperatureF,DewpointF,PressureIn,WindDirection,WindDirectionDegrees,WindSpeedMPH,WindSpeedGustMPH,Humidity,HourlyPrecipIn,Conditions,Clouds,dailyrainin,SoftwareType,DateUTC
2014-01-21 00:11:00,59.7,44.0,30.03,NW,315,0.0,10.0,57,0.00,,,0.00,weatherlink.com 1.10,2014-01-21 06:11:00,
2014-01-21 00:26:00,59.6,43.0,30.04,WNW,296,4.0,14.0,54,0.00,,,0.00,weatherlink.com 1.10,2014-01-21 06:26:00,
2014-01-21 00:41:00,59.3,41.0,30.05,NW,310,4.0,15.0,52,0.00,,,0.00,weatherlink.com 1.10,2014-01-21 06:41:00,
2014-01-21 00:56:00,58.7,40.0,30.06,NW,314,6.0,14.0,51,0.00,,,0.00,weatherlink.com 1.10,2014-01-21 06:56:00,
2014-01-21 01:11:00,58.1,39.0,30.07,NNW,338,5.0,17.0,49,0.00,,,0.00,weatherlink.com 1.10,2014-01-21 07:11:00,
2014-01-21 01:26:00,57.2,37.0,30.07,NW,325,3.0,13.0,47,0.00,,,0.00,weatherlink.com 1.10,2014-01-21 07:26:00,
2014-01-21 01:41:00,56.6,36.0,30.08,NNW,346,8.0,11.0,46,0.00,,,0.00,weatherlink.com 1.10,2014-01-21 07:41:00,
2014-01-21 01:56:00,55.9,34.0,30.10,North,355,2.0,13.0,44,0.00,,,0.00,weatherlink.com 1.10,2014-01-21 07:56:00,
2014-01-21 02:11:00,55.5,33.0,30.11,NW,319,5.0,13.0,43,0.00,,,0.00,weatherlink.com 1.10,2014-01-21 08:11:00,
2014-01-21 02:26:00,54.8,33.0,30.11,NW,315,3.0,10.0,44,0.00,,,0.00,weatherlink.com 1.10,2014-01-21 08:26:00,
2014-01-21 02:41:00,54.6,32.0,30.12,NW,323,4.0,15.0,43,0.00,,,0.00,weatherlink.com 1.10,2014-01-21 08:41:00,
2014-01-21 02:56:00,54.0,31.0,30.14,NNW,329,1.0,14.0,42,0.00,,,0.00,weatherlink.com 1.10,2014-01-21 08:56:00,
2014-01-21 03:11:00,53.5,31.0,30.14,NNW,333,3.0,13.0,42,0.00,,,0.00,weatherlink.com 1.10,2014-01-21 09:11:00,
2014-01-21 03:26:00,53.7,30.0,30.14,NNW,345,6.0,17.0,40,0.00,,,0.00,weatherlink.com 1.10,2014-01-21 09:26:00,
2014-01-21 03:41:00,52.9,30.0,30.16,NW,322,8.0,11.0,41,0.00,,,0.00,weatherlink.com 1.10,2014-01-21 09:41:00,
2014-01-21 03:56:00,52.3,28.0,30.16,NW,319,8.0,14.0,40,0.00,,,0.00,weatherlink.com 1.10,2014-01-21 09:56:00,
2014-01-21 04:11:00,52.1,28.0,30.16,NNW,330,2.0,16.0,39,0.00,,,0.00,weatherlink.com 1.10,2014-01-21 10:11:00,
2014-01-21 04:26:00,51.4,26.0,30.17,NW,325,0.0,12.0,38,0.00,,,0.00,weatherlink.com 1.10,2014-01-21 10:26:00,
2014-01-21 04:41:00,51.2,26.0,30.18,NW,319,2.0,10.0,37,0.00,,,0.00,weatherlink.com 1.10,2014-01-21 10:41:00,
2014-01-21 04:57:00,50.9,25.0,30.18,NW,310,7.0,13.0,37,0.00,,,0.00,weatherlink.com 1.10,2014-01-21 10:57:00,
2014-01-21 05:12:00,50.5,25.0,30.18,NNW,343,4.0,14.0,37,0.00,,,0.00,weatherlink.com 1.10,2014-01-21 11:12:00,
2014-01-21 05:27:00,49.8,25.0,30.19,NNW,342,5.0,12.0,38,0.00,,,0.00,weatherlink.com 1.10,2014-01-21 11:27:00,
2014-01-21 05:42:00,48.9,25.0,30.20,NW,305,2.0,8.0,40,0.00,,,0.00,weatherlink.com 1.10,2014-01-21 11:42:00,
2014-01-21 05:57:00,48.7,25.0,30.21,NW,307,10.0,10.0,40,0.00,,,0.00,weatherlink.com 1.10,2014-01-21 11:57:00,
2014-01-21 06:12:00,48.5,26.0,30.22,WNW,299,3.0,10.0,41,0.00,,,0.00,weatherlink.com 1.10,2014-01-21 12:12:00,
2014-01-21 06:27:00,48.3,25.0,30.22,NW,314,8.0,11.0,40,0.00,,,0.00,weatherlink.com 1.10,2014-01-21 12:27:00,
2014-01-21 06:42:00,47.9,24.0,30.23,North,360,0.0,6.0,39,0.00,,,0.00,weatherlink.com 1.10,2014-01-21 12:42:00,
2014-01-21 06:57:00,47.9,24.0,30.23,NNW,342,2.0,10.0,39,0.00,,,0.00,weatherlink.com 1.10,2014-01-21 12:57:00,
2014-01-21 07:12:00,46.6,23.0,30.23,NW,310,0.0,3.0,40,0.00,,,0.00,weatherlink.com 1.10,2014-01-21 13:12:00,
2014-01-21 07:27:00,46.9,23.0,30.23,NW,307,0.0,5.0,39,0.00,,,0.00,weatherlink.com 1.10,2014-01-21 13:27:00,
2014-01-21 07:42:00,46.3,24.0,30.24,WNW,295,0.0,6.0,41,0.00,,,0.00,weatherlink.com 1.10,2014-01-21 13:42:00,
2014-01-21 07:57:00,45.6,24.0,30.25,WNW,294,1.0,3.0,43,0.00,,,0.00,weatherlink.com 1.10,2014-01-21 13:57:00,
2014-01-21 08:12:00,46.8,24.0,30.25,NNW,329,8.0,13.0,41,0.00,,,0.00,weatherlink.com 1.10,2014-01-21 14:12:00,
2014-01-21 08:27:00,46.9,25.0,30.26,NW,315,1.0,8.0,43,0.00,,,0.00,weatherlink.com 1.10,2014-01-21 14:27:00,
2014-01-21 08:42:00,47.8,25.0,30.26,NW,315,3.0,13.0,41,0.00,,,0.00,weatherlink.com 1.10,2014-01-21 14:42:00,
2014-01-21 08:57:00,48.8,25.0,30.27,NW,308,7.0,13.0,39,0.00,,,0.00,weatherlink.com 1.10,2014-01-21 14:57:00,
2014-01-21 09:12:00,49.4,25.0,30.27,NNW,333,9.0,20.0,38,0.00,,,0.00,weatherlink.com 1.10,2014-01-21 15:12:00,
2014-01-21 09:27:00,50.3,24.0,30.28,NW,322,8.0,19.0,36,0.00,,,0.00,weatherlink.com 1.10,2014-01-21 15:27:00,
2014-01-21 09:42:00,51.1,24.0,30.29,NW,315,3.0,15.0,35,0.00,,,0.00,weatherlink.com 1.10,2014-01-21 15:42:00,
2014-01-21 09:57:00,51.7,24.0,30.30,NNW,329,3.0,15.0,34,0.00,,,0.00,weatherlink.com 1.10,2014-01-21 15:57:00,
2014-01-21 10:12:00,51.9,23.0,30.31,NNE,30,6.0,15.0,32,0.00,,,0.00,weatherlink.com 1.10,2014-01-21 16:12:00,
2014-01-21 10:27:00,51.6,22.0,30.31,WNW,302,17.0,19.0,32,0.00,,,0.00,weatherlink.com 1.10,2014-01-21 16:27:00,
2014-01-21 10:42:00,52.8,24.0,30.31,NNW,348,5.0,18.0,32,0.00,,,0.00,weatherlink.com 1.10,2014-01-21 16:42:00,
2014-01-21 10:57:00,52.3,22.0,30.31,NW,309,11.0,19.0,30,0.00,,,0.00,weatherlink.com 1.10,2014-01-21 16:57:00,
2014-01-21 11:12:00,52.4,21.0,30.30,WSW,248,2.0,20.0,29,0.00,,,0.00,weatherlink.com 1.10,2014-01-21 17:12:00,
2014-01-21 11:27:00,53.8,22.0,30.30,NNW,327,3.0,13.0,29,0.00,,,0.00,weatherlink.com 1.10,2014-01-21 17:27:00,
2014-01-21 11:42:00,53.9,23.0,30.30,North,360,3.0,13.0,30,0.00,,,0.00,weatherlink.com 1.10,2014-01-21 17:42:00,
2014-01-21 11:58:00,53.4,21.0,30.28,North,355,2.0,18.0,28,0.00,,,0.00,weatherlink.com 1.10,2014-01-21 17:58:00,
2014-01-21 12:13:00,53.8,19.0,30.28,NW,326,5.0,15.0,26,0.00,,,0.00,weatherlink.com 1.10,2014-01-21 18:13:00,
2014-01-21 12:28:00,54.8,20.0,30.27,WNW,292,3.0,17.0,26,0.00,,,0.00,weatherlink.com 1.10,2014-01-21 18:28:00,
2014-01-21 12:43:00,55.6,23.0,30.26,NNE,18,4.0,14.0,28,0.00,,,0.00,weatherlink.com 1.10,2014-01-21 18:43:00,
2014-01-21 12:58:00,55.0,20.0,30.25,NW,325,2.0,19.0,25,0.00,,,0.00,weatherlink.com 1.10,2014-01-21 18:58:00,
2014-01-21 13:13:00,56.0,21.0,30.24,NNE,23,0.0,12.0,26,0.00,,,0.00,weatherlink.com 1.10,2014-01-21 19:13:00,
2014-01-21 13:28:00,55.1,20.0,30.23,NW,308,12.0,15.0,25,0.00,,,0.00,weatherlink.com 1.10,2014-01-21 19:28:00,
2014-01-21 13:43:00,55.7,17.0,30.23,ESE,112,2.0,16.0,22,0.00,,,0.00,weatherlink.com 1.10,2014-01-21 19:43:00,
2014-01-21 13:58:00,56.3,18.0,30.23,NW,318,8.0,11.0,22,0.00,,,0.00,weatherlink.com 1.10,2014-01-21 19:58:00,
2014-01-21 14:13:00,56.1,21.0,30.23,WNW,302,3.0,16.0,25,0.00,,,0.00,weatherlink.com 1.10,2014-01-21 20:13:00,
2014-01-21 14:28:00,55.9,21.0,30.23,NW,318,10.0,17.0,26,0.00,,,0.00,weatherlink.com 1.10,2014-01-21 20:28:00,
2014-01-21 14:43:00,55.9,20.0,30.22,NNW,327,6.0,13.0,25,0.00,,,0.00,weatherlink.com 1.10,2014-01-21 20:43:00,
2014-01-21 14:58:00,56.0,19.0,30.23,NW,323,8.0,13.0,24,0.00,,,0.00,weatherlink.com 1.10,2014-01-21 20:58:00,
2014-01-21 15:13:00,56.1,20.0,30.23,NW,313,6.0,8.0,24,0.00,,,0.00,weatherlink.com 1.10,2014-01-21 21:13:00,
2014-01-21 15:28:00,55.2,17.0,30.23,NW,312,10.0,14.0,22,0.00,,,0.00,weatherlink.com 1.10,2014-01-21 21:28:00,
2014-01-21 15:43:00,54.6,16.0,30.22,WNW,303,0.0,11.0,22,0.00,,,0.00,weatherlink.com 1.10,2014-01-21 21:43:00,
2014-01-21 15:58:00,53.7,17.0,30.22,NW,309,2.0,13.0,23,0.00,,,0.00,weatherlink.com 1.10,2014-01-21 21:58:00,
2014-01-21 16:13:00,53.3,19.0,30.22,WNW,295,2.0,10.0,26,0.00,,,0.00,weatherlink.com 1.10,2014-01-21 22:13:00,
2014-01-21 16:28:00,53.2,20.0,30.22,West,271,3.0,8.0,27,0.00,,,0.00,weatherlink.com 1.10,2014-01-21 22:28:00,
2014-01-21 16:43:00,52.7,20.0,30.23,WNW,303,9.0,10.0,28,0.00,,,0.00,weatherlink.com 1.10,2014-01-21 22:43:00,
2014-01-21 16:58:00,52.1,19.0,30.23,NW,319,6.0,10.0,27,0.00,,,0.00,weatherlink.com 1.10,2014-01-21 22:58:00,
2014-01-21 17:13:00,51.2,20.0,30.23,NW,315,4.0,5.0,29,0.00,,,0.00,weatherlink.com 1.10,2014-01-21 23:13:00,
2014-01-21 17:28:00,50.2,20.0,30.23,NW,309,0.0,5.0,30,0.00,,,0.00,weatherlink.com 1.10,2014-01-21 23:28:00,
2014-01-21 17:43:00,48.7,21.0,30.24,NW,309,0.0,3.0,33,0.00,,,0.00,weatherlink.com 1.10,2014-01-21 23:43:00,
2014-01-21 17:58:00,47.6,21.0,30.24,NW,311,0.0,1.0,35,0.00,,,0.00,weatherlink.com 1.10,2014-01-21 23:58:00,
2014-01-21 18:13:00,46.0,23.0,30.24,NW,312,0.0,0.0,41,0.00,,,0.00,weatherlink.com 1.10,2014-01-22 00:13:00,
2014-01-21 18:28:00,43.7,24.0,30.24,WNW,303,3.0,3.0,47,0.00,,,0.00,weatherlink.com 1.10,2014-01-22 00:28:00,
2014-01-21 18:43:00,43.3,25.0,30.24,WNW,286,3.0,3.0,48,0.00,,,0.00,weatherlink.com 1.10,2014-01-22 00:43:00,
2014-01-21 18:58:00,43.2,22.0,30.25,WNW,286,0.0,1.0,44,0.00,,,0.00,weatherlink.com 1.10,2014-01-22 00:58:00,
2014-01-21 19:13:00,40.9,25.0,30.25,WNW,286,0.0,1.0,53,0.00,,,0.00,weatherlink.com 1.10,2014-01-22 01:13:00,
2014-01-21 19:28:00,39.6,26.0,30.24,WNW,286,0.0,0.0,59,0.00,,,0.00,weatherlink.com 1.10,2014-01-22 01:28:00,
2014-01-21 19:43:00,39.2,26.0,30.23,WNW,286,0.0,0.0,60,0.00,,,0.00,weatherlink.com 1.10,2014-01-22 01:43:00,
2014-01-21 19:58:00,38.6,26.0,30.23,WNW,286,0.0,0.0,62,0.00,,,0.00,weatherlink.com 1.10,2014-01-22 01:58:00,
2014-01-21 20:13:00,37.9,26.0,30.24,WNW,286,0.0,0.0,63,0.00,,,0.00,weatherlink.com 1.10,2014-01-22 02:13:00,
2014-01-21 20:28:00,37.1,27.0,30.23,WNW,286,0.0,0.0,66,0.00,,,0.00,weatherlink.com 1.10,2014-01-22 02:28:00,
2014-01-21 20:43:00,36.6,26.0,30.24,WNW,286,0.0,0.0,66,0.00,,,0.00,weatherlink.com 1.10,2014-01-22 02:43:00,
2014-01-21 20:58:00,36.0,27.0,30.23,WNW,286,0.0,0.0,70,0.00,,,0.00,weatherlink.com 1.10,2014-01-22 02:58:00,
2014-01-21 21:13:00,35.8,23.0,30.22,WNW,286,0.0,0.0,60,0.00,,,0.00,weatherlink.com 1.10,2014-01-22 03:13:00,
2014-01-21 21:28:00,35.3,27.0,30.22,WNW,286,0.0,0.0,71,0.00,,,0.00,weatherlink.com 1.10,2014-01-22 03:28:00,
2014-01-21 21:43:00,34.6,26.0,30.22,WNW,286,0.0,0.0,70,0.00,,,0.00,weatherlink.com 1.10,2014-01-22 03:43:00,
2014-01-21 21:58:00,34.0,25.0,30.23,WNW,286,0.0,0.0,69,0.00,,,0.00,weatherlink.com 1.10,2014-01-22 03:58:00,
2014-01-21 22:14:00,33.5,24.0,30.23,WNW,286,0.0,0.0,69,0.00,,,0.00,weatherlink.com 1.10,2014-01-22 04:14:00,
2014-01-21 22:29:00,33.1,25.0,30.23,WNW,286,0.0,0.0,71,0.00,,,0.00,weatherlink.com 1.10,2014-01-22 04:29:00,
2014-01-21 22:44:00,32.3,26.0,30.24,WNW,286,0.0,0.0,76,0.00,,,0.00,weatherlink.com 1.10,2014-01-22 04:44:00,
2014-01-21 22:59:00,31.6,25.0,30.25,WNW,286,0.0,0.0,77,0.00,,,0.00,weatherlink.com 1.10,2014-01-22 04:59:00,
2014-01-21 23:14:00,31.5,24.0,30.25,WNW,286,0.0,0.0,75,0.00,,,0.00,weatherlink.com 1.10,2014-01-22 05:14:00,
2014-01-21 23:29:00,31.2,24.0,30.24,WNW,286,0.0,0.0,75,0.00,,,0.00,weatherlink.com 1.10,2014-01-22 05:29:00,
2014-01-21 23:44:00,30.6,24.0,30.24,WNW,286,0.0,0.0,75,0.00,,,0.00,weatherlink.com 1.10,2014-01-22 05:44:00,
2014-01-21 23:59:00,30.2,24.0,30.24,WNW,286,0.0,0.0,76,0.00,,,0.00,weatherlink.com 1.10,2014-01-22 05:59:00,